LiveATC.Net - Listen to live air traffic control over the Internet! Contact LiveATC.net for advertising information


ICAO: KHXD  IATA: HXD   Airport: Hilton Head Airport
City: Hilton Head Island   State/Province: South Carolina
Country: United States   Continent: North America
KHXD METAR Weather: KHXD 240015Z AUTO 18008KT 4SM BR OVC003 21/21 A2986 RMK AO2 LTG DSNT N AND E AND SW P0000
KHXD Flight Activity (FlightAware)
KHXD Airport Info   (AirNav) (iFlightPlanner)
KHXD Ground/Tower
Feed Status: DOWN
Last heard on: 2014-11-23 18:04:03 (0 days 6 hours 56 minutes ago)
KHXD Ground/Tower Audio Archives
FacilityFrequency
Hilton Head Ground121.100
Hilton Head Tower118.975


NOTICE

Unauthorized use prohibited. See LiveATC.net Terms of Service


Find LiveATC Audio Streams


Airport/ARTCC Code

Frequency
(e.g., 124.400, 128.75)
Site-wide search

Browse LiveATC Feeds
LiveATC Coverage Map
Top 50 LiveATC Feeds
Bad Weather Areas

LiveATC FAQ
Offer a LiveATC Feed
Contact LiveATC.net
Press Inquiries

LiveATC on iPhone
LiveATC on Android

LiveATC Mobile
(Mobile browser)

ATC Audio Archives
Interesting Recordings

LiveATC Forums


Home Page
About LiveATC.net
Make a Donation
LiveATC Bookstore

Terms of Use
Privacy Policy

ATC/Radar Sites
U.S. ARTCC Freqs
Canadian Air Freqs

AIRMETs/SIGMETs

FAA Airport Status
Nat'l Airspace Status
Arrival Demand Charts


Server Software By:
Icecast.org
Liquidsoap

Please make a donation to help us keep growing!